Gates, Oregon
Current Conditions -  °F | °C
As of 7:56 AM on Thursday 30 Oct 2014 (Local Time) from KSLE Reporting Station
Haze Haze  
Wind Chill: 56°   Ceiling: 300
Heat Index: 56°   Visibility: 2mi
Dew Point: 54°   Wind: 3mph
Humidity: 93%   Direction: 40°NE
Pressure: 29.87"   Gusts: NA
Location:  44.76°N, 122.42°W
Report Text: KSLE 301456Z 04003KT 2SM BR BKN003 BKN060 OVC085 13/12 A2987 RMK AO2 RAE03B21E32 SLP115 P0000 60001 T01330122 56013
Loading
Personal Weather Stations






























Interactive Weather Map
Tropical Storm Tracking
New forecast layout! Learn more

10-Day Weather Forecast

Advertisements
Track Severe Weather on mobile